createdAt,value
2018-05-12T00:00:58.051Z,0.00
2018-05-12T00:01:58.011Z,0.00
2018-05-12T00:02:57.967Z,0.00
2018-05-12T00:03:57.947Z,0.00
2018-05-12T00:04:57.888Z,0.00
2018-05-12T00:05:57.851Z,0.00
2018-05-12T00:06:57.819Z,0.00
2018-05-12T00:07:57.783Z,0.00
2018-05-12T00:08:57.763Z,0.00
2018-05-12T00:09:57.705Z,0.00
2018-05-12T00:10:57.669Z,0.00
2018-05-12T00:11:57.632Z,0.00
2018-05-12T00:12:57.595Z,0.00
2018-05-12T00:13:57.558Z,0.00
2018-05-12T00:14:57.562Z,0.00
2018-05-12T00:15:57.467Z,0.00
2018-05-12T00:16:57.441Z,0.00
2018-05-12T00:17:57.393Z,0.00
2018-05-12T00:18:57.360Z,0.00
2018-05-12T00:19:57.322Z,0.00
2018-05-12T00:20:57.311Z,0.00
2018-05-12T00:21:57.242Z,0.00
2018-05-12T00:22:57.208Z,0.00
2018-05-12T00:23:57.164Z,0.00
2018-05-12T00:24:57.131Z,0.00
2018-05-12T00:25:57.090Z,0.00
2018-05-12T00:26:57.075Z,0.00
2018-05-12T00:27:57.007Z,0.00
2018-05-12T00:28:56.974Z,0.00
2018-05-12T00:29:56.936Z,0.00
2018-05-12T00:30:56.903Z,0.00
2018-05-12T00:31:56.894Z,0.00
2018-05-12T00:32:56.825Z,0.00
2018-05-12T00:33:56.782Z,0.00
2018-05-12T00:34:56.744Z,0.00
2018-05-12T00:35:56.702Z,0.00
2018-05-12T00:36:56.692Z,0.00
2018-05-12T00:37:56.626Z,0.00
2018-05-12T00:38:56.591Z,0.00
2018-05-12T00:39:56.557Z,0.00
2018-05-12T00:40:56.504Z,0.00
2018-05-12T00:41:56.473Z,0.00
2018-05-12T00:42:56.491Z,0.00
2018-05-12T00:43:56.401Z,0.00
2018-05-12T00:44:56.363Z,0.00
2018-05-12T00:45:56.323Z,0.00
2018-05-12T00:46:56.283Z,0.00
2018-05-12T00:47:56.236Z,0.00
2018-05-12T00:49:06.947Z,0.00
2018-05-12T00:49:56.168Z,0.00
2018-05-12T00:50:56.133Z,0.00
2018-05-12T00:51:56.089Z,0.00
2018-05-12T00:52:56.057Z,0.00
2018-05-12T00:53:56.023Z,0.00
2018-05-12T00:54:55.976Z,0.00
2018-05-12T00:55:55.937Z,0.00
2018-05-12T00:56:55.895Z,0.00
2018-05-12T00:57:55.858Z,0.00
2018-05-12T00:58:55.838Z,0.00
2018-05-12T00:59:55.779Z,0.00
2018-05-12T01:00:55.742Z,0.00
2018-05-12T01:01:55.708Z,0.00
2018-05-12T01:02:55.669Z,0.00
2018-05-12T01:03:55.629Z,0.00
2018-05-12T01:04:55.607Z,0.00
2018-05-12T01:05:55.546Z,0.00
2018-05-12T01:06:55.501Z,0.00
2018-05-12T01:07:55.465Z,0.00
2018-05-12T01:08:55.428Z,0.00
2018-05-12T01:09:55.394Z,0.00
2018-05-12T01:10:55.379Z,0.00
2018-05-12T01:11:55.310Z,0.00
2018-05-12T01:12:55.273Z,0.00
2018-05-12T01:13:55.242Z,0.00
2018-05-12T01:14:55.201Z,0.00
2018-05-12T01:15:55.158Z,0.00
2018-05-12T01:16:55.136Z,0.00
2018-05-12T01:17:55.076Z,0.00
2018-05-12T01:18:55.041Z,0.00
2018-05-12T01:19:55.000Z,0.00
2018-05-12T01:20:54.961Z,0.00
2018-05-12T01:21:54.956Z,0.00
2018-05-12T01:22:54.896Z,0.00
2018-05-12T01:23:54.850Z,0.00
2018-05-12T01:24:54.806Z,0.00
2018-05-12T01:25:54.764Z,0.00
2018-05-12T01:26:54.732Z,0.00
2018-05-12T01:27:54.719Z,0.00
2018-05-12T01:28:54.649Z,0.00
2018-05-12T01:29:54.607Z,0.00
2018-05-12T01:30:54.573Z,0.00
2018-05-12T01:31:54.534Z,0.00
2018-05-12T01:32:54.501Z,0.00
2018-05-12T01:33:54.486Z,0.00
2018-05-12T01:34:54.425Z,0.00
2018-05-12T01:35:54.381Z,0.00
2018-05-12T01:36:54.337Z,0.00
2018-05-12T01:37:54.305Z,0.00
2018-05-12T01:38:54.286Z,0.00
2018-05-12T01:39:54.224Z,0.00
2018-05-12T01:40:54.185Z,0.00
2018-05-12T01:41:54.150Z,0.00
2018-05-12T01:42:54.109Z,0.00
2018-05-12T01:43:54.066Z,0.00
2018-05-12T01:44:54.061Z,0.00
2018-05-12T01:45:53.995Z,0.00
2018-05-12T01:46:53.955Z,0.00
2018-05-12T01:47:53.916Z,0.00
2018-05-12T01:48:53.871Z,0.00
2018-05-12T01:49:53.828Z,0.00
2018-05-12T01:50:53.812Z,0.00
2018-05-12T01:51:53.759Z,0.00
2018-05-12T01:52:53.720Z,0.00
2018-05-12T01:53:53.689Z,0.00
2018-05-12T01:54:53.645Z,0.00
2018-05-12T01:55:53.627Z,0.00
2018-05-12T01:56:53.568Z,0.00
2018-05-12T01:57:53.523Z,0.00
2018-05-12T01:58:53.492Z,0.00
2018-05-12T01:59:53.452Z,0.00
2018-05-12T02:00:53.430Z,0.00
2018-05-12T02:01:53.381Z,0.00
2018-05-12T02:02:53.324Z,0.00
2018-05-12T02:03:53.293Z,0.00
2018-05-12T02:04:53.251Z,0.00
2018-05-12T02:05:53.245Z,0.00
2018-05-12T02:06:53.177Z,0.00
2018-05-12T02:07:53.138Z,0.00
2018-05-12T02:08:53.090Z,0.00
2018-05-12T02:09:53.055Z,0.00
2018-05-12T02:10:53.040Z,0.00
2018-05-12T02:11:52.977Z,0.00
2018-05-12T02:12:52.941Z,0.00
2018-05-12T02:13:52.904Z,0.00
2018-05-12T02:14:52.855Z,0.00
2018-05-12T02:15:52.819Z,0.00
2018-05-12T02:16:52.809Z,0.00
2018-05-12T02:17:52.749Z,0.00
2018-05-12T02:18:52.736Z,0.00
2018-05-12T02:19:52.669Z,0.00
2018-05-12T02:20:52.626Z,0.00
2018-05-12T02:21:52.602Z,0.00
2018-05-12T02:22:52.546Z,0.00
2018-05-12T02:23:52.510Z,0.00
2018-05-12T02:24:52.473Z,0.00
2018-05-12T02:25:52.437Z,0.00
2018-05-12T02:26:52.426Z,0.00
2018-05-12T02:27:52.357Z,0.00
2018-05-12T02:28:52.311Z,0.00
2018-05-12T02:29:52.269Z,0.00
2018-05-12T02:30:52.240Z,0.00
2018-05-12T02:31:52.225Z,0.00
2018-05-12T02:32:52.161Z,0.00
2018-05-12T02:33:52.116Z,0.00
2018-05-12T02:34:52.071Z,0.00
2018-05-12T02:35:52.049Z,0.00
2018-05-12T02:36:52.025Z,0.00
2018-05-12T02:37:51.972Z,0.00
2018-05-12T02:38:51.930Z,0.00
2018-05-12T02:39:51.887Z,0.00
2018-05-12T02:40:51.843Z,0.00
2018-05-12T02:41:51.833Z,0.00
2018-05-12T02:42:51.762Z,0.00
2018-05-12T02:43:51.729Z,0.00
2018-05-12T02:44:51.700Z,0.00
2018-05-12T02:45:51.663Z,0.00
2018-05-12T02:46:51.635Z,0.00
2018-05-12T02:47:51.573Z,0.00
2018-05-12T02:49:01.988Z,0.00
2018-05-12T02:49:51.493Z,0.00
2018-05-12T02:50:51.453Z,0.00
2018-05-12T02:51:51.418Z,0.00
2018-05-12T02:52:51.409Z,0.00
2018-05-12T02:53:51.343Z,0.00
2018-05-12T02:54:51.288Z,0.00
2018-05-12T02:55:51.262Z,0.00
2018-05-12T02:56:51.222Z,0.00
2018-05-12T02:57:51.176Z,0.00
2018-05-12T02:58:51.169Z,0.00
2018-05-12T02:59:51.108Z,0.00
2018-05-12T03:00:51.065Z,0.00
2018-05-12T03:01:51.021Z,0.00
2018-05-12T03:02:50.995Z,4.00
2018-05-12T03:03:50.984Z,4.00
2018-05-12T03:04:50.912Z,4.00
2018-05-12T03:05:50.879Z,0.00
2018-05-12T03:06:50.920Z,4.00
2018-05-12T03:07:50.889Z,4.00
2018-05-12T03:08:50.749Z,0.00
2018-05-12T03:09:50.830Z,4.00
2018-05-12T03:10:50.781Z,8.00
2018-05-12T03:11:50.636Z,4.00
2018-05-12T03:12:50.602Z,4.00
2018-05-12T03:13:50.562Z,8.00
2018-05-12T03:14:50.534Z,8.00
2018-05-12T03:15:50.483Z,12.00
2018-05-12T03:16:50.443Z,8.00
2018-05-12T03:17:50.406Z,12.00
2018-05-12T03:18:50.354Z,12.00
2018-05-12T03:19:50.352Z,20.00
2018-05-12T03:20:50.279Z,20.00
2018-05-12T03:21:50.239Z,24.00
2018-05-12T03:22:50.215Z,28.00
2018-05-12T03:23:50.171Z,28.00
2018-05-12T03:24:50.156Z,32.00
2018-05-12T03:25:50.099Z,40.00
2018-05-12T03:26:50.047Z,48.00
2018-05-12T03:27:50.009Z,52.00
2018-05-12T03:28:49.965Z,60.00
2018-05-12T03:29:49.952Z,68.00
2018-05-12T03:30:49.898Z,80.00
2018-05-12T03:31:49.856Z,88.00
2018-05-12T03:32:49.812Z,104.00
2018-05-12T03:33:49.774Z,120.00
2018-05-12T03:34:49.740Z,140.00
2018-05-12T03:35:49.725Z,164.00
2018-05-12T03:36:49.672Z,184.00
2018-05-12T03:37:49.629Z,212.00
2018-05-12T03:38:49.574Z,236.00
2018-05-12T03:39:49.543Z,260.00
2018-05-12T03:40:49.500Z,288.00
2018-05-12T03:41:49.479Z,312.00
2018-05-12T03:42:49.427Z,344.00
2018-05-12T03:43:49.388Z,372.00
2018-05-12T03:44:49.353Z,396.00
2018-05-12T03:45:49.309Z,428.00
2018-05-12T03:46:49.290Z,460.00
2018-05-12T03:47:49.225Z,488.00
2018-05-12T03:48:49.185Z,520.00
2018-05-12T03:49:49.156Z,548.00
2018-05-12T03:50:49.103Z,584.00
2018-05-12T03:51:49.091Z,632.00
2018-05-12T03:52:49.026Z,692.00
2018-05-12T03:53:48.988Z,756.00
2018-05-12T03:54:48.959Z,824.00
2018-05-12T03:55:48.914Z,892.00
2018-05-12T03:56:48.898Z,972.00
2018-05-12T03:57:48.840Z,1048.00
2018-05-12T03:58:48.789Z,1124.00
2018-05-12T04:00:00.071Z,1212.00
2018-05-12T04:00:48.720Z,1304.00
2018-05-12T04:01:48.708Z,1396.00
2018-05-12T04:02:48.635Z,1480.00
2018-05-12T04:03:48.592Z,1552.00
2018-05-12T04:04:48.568Z,1620.00
2018-05-12T04:05:48.525Z,1688.00
2018-05-12T04:06:48.483Z,1772.00
2018-05-12T04:07:48.481Z,1876.00
2018-05-12T04:08:48.393Z,1992.00
2018-05-12T04:09:48.362Z,2096.00
2018-05-12T04:10:48.324Z,2164.00
2018-05-12T04:11:48.277Z,2220.00
2018-05-12T04:12:48.251Z,2288.00
2018-05-12T04:13:48.229Z,2380.00
2018-05-12T04:14:48.166Z,2508.00
2018-05-12T04:15:48.137Z,2672.00
2018-05-12T04:16:48.086Z,2844.00
2018-05-12T04:17:48.046Z,2988.00
2018-05-12T04:18:48.036Z,3080.00
2018-05-12T04:19:47.987Z,3140.00
2018-05-12T04:20:47.927Z,3212.00
2018-05-12T04:21:47.892Z,3280.00
2018-05-12T04:22:47.856Z,3328.00
2018-05-12T04:23:57.559Z,3416.00
2018-05-12T04:24:47.778Z,3576.00
2018-05-12T04:25:47.745Z,3728.00
2018-05-12T04:26:47.694Z,3804.00
2018-05-12T04:27:47.671Z,3852.00
2018-05-12T04:28:47.621Z,3916.00
2018-05-12T04:29:47.605Z,4036.00
2018-05-12T04:30:47.551Z,4188.00
2018-05-12T04:31:47.507Z,4324.00
2018-05-12T04:32:47.464Z,4436.00
2018-05-12T04:33:47.425Z,4532.00
2018-05-12T04:34:47.424Z,4628.00
2018-05-12T04:35:47.348Z,4760.00
2018-05-12T04:36:47.310Z,4896.00
2018-05-12T04:37:47.280Z,5012.00
2018-05-12T04:38:47.230Z,5108.00
2018-05-12T04:39:47.198Z,5188.00
2018-05-12T04:40:47.177Z,5244.00
2018-05-12T04:41:47.119Z,5268.00
2018-05-12T04:42:47.086Z,5260.00
2018-05-12T04:43:47.040Z,5256.00
2018-05-12T04:44:47.005Z,5284.00
2018-05-12T04:45:47.010Z,5356.00
2018-05-12T04:46:57.077Z,5428.00
2018-05-12T04:47:46.889Z,5492.00
2018-05-12T04:48:46.842Z,5528.00
2018-05-12T04:49:46.810Z,5552.00
2018-05-12T04:50:46.770Z,5600.00
2018-05-12T04:51:46.749Z,5660.00
2018-05-12T04:52:46.699Z,5732.00
2018-05-12T04:53:46.657Z,5840.00
2018-05-12T04:54:46.618Z,5980.00
2018-05-12T04:55:46.585Z,6168.00
2018-05-12T04:56:46.562Z,6472.00
2018-05-12T04:57:46.501Z,7436.00
2018-05-12T04:58:46.462Z,7612.00
2018-05-12T04:59:46.419Z,8004.00
2018-05-12T05:00:46.395Z,8436.00
2018-05-12T05:01:46.357Z,8696.00
2018-05-12T05:02:46.336Z,9196.00
2018-05-12T05:03:46.269Z,9192.00
2018-05-12T05:04:46.243Z,8764.00
2018-05-12T05:05:46.196Z,8412.00
2018-05-12T05:06:46.161Z,8228.00
2018-05-12T05:07:46.126Z,8172.00
2018-05-12T05:08:46.103Z,8304.00
2018-05-12T05:09:46.045Z,8592.00
2018-05-12T05:10:46.010Z,9028.00
2018-05-12T05:11:45.971Z,9160.00
2018-05-12T05:12:45.942Z,9112.00
2018-05-12T05:13:45.928Z,8900.00
2018-05-12T05:14:45.861Z,8924.00
2018-05-12T05:15:45.827Z,8872.00
2018-05-12T05:16:45.783Z,8640.00
2018-05-12T05:17:45.749Z,8368.00
2018-05-12T05:18:45.724Z,8504.00
2018-05-12T05:19:57.609Z,8836.00
2018-05-12T05:20:45.637Z,8916.00
2018-05-12T05:21:45.599Z,9384.00
2018-05-12T05:22:45.584Z,9500.00
2018-05-12T05:23:45.542Z,9940.00
2018-05-12T05:24:45.527Z,10544.00
2018-05-12T05:25:45.463Z,11620.00
2018-05-12T05:26:45.418Z,11992.00
2018-05-12T05:27:45.381Z,11592.00
2018-05-12T05:28:45.347Z,11700.00
2018-05-12T05:29:45.310Z,12024.00
2018-05-12T05:30:45.313Z,12416.00
2018-05-12T05:31:45.238Z,11840.00
2018-05-12T05:32:45.206Z,11816.00
2018-05-12T05:33:55.629Z,9084.00
2018-05-12T05:34:45.133Z,9472.00
2018-05-12T05:35:45.106Z,9360.00
2018-05-12T05:36:45.082Z,11584.00
2018-05-12T05:37:45.026Z,11008.00
2018-05-12T05:38:44.985Z,15456.00
2018-05-12T05:39:44.951Z,15616.00
2018-05-12T05:40:44.920Z,15872.00
2018-05-12T05:41:45.030Z,13932.00
2018-05-12T05:42:44.846Z,13644.00
2018-05-12T05:43:44.814Z,12468.00
2018-05-12T05:44:44.768Z,13816.00
2018-05-12T05:45:44.741Z,16544.00
2018-05-12T05:46:44.723Z,18784.00
2018-05-12T05:47:44.672Z,19456.00
2018-05-12T05:48:44.631Z,19808.00
2018-05-12T05:49:44.600Z,19840.00
2018-05-12T05:50:44.564Z,19488.00
2018-05-12T05:51:44.542Z,20384.00
2018-05-12T05:52:44.489Z,20864.00
2018-05-12T05:53:44.455Z,19360.00
2018-05-12T05:54:44.425Z,14832.00
2018-05-12T05:55:44.388Z,21920.00
2018-05-12T05:56:44.367Z,12224.00
2018-05-12T05:57:44.308Z,20864.00
2018-05-12T05:58:44.273Z,20864.00
2018-05-12T05:59:44.241Z,20000.00
2018-05-12T06:00:44.211Z,15732.00
2018-05-12T06:01:44.181Z,16832.00
2018-05-12T06:02:44.166Z,16004.00
2018-05-12T06:03:44.102Z,23840.00
2018-05-12T06:04:44.074Z,22592.00
2018-05-12T06:05:44.034Z,22368.00
2018-05-12T06:06:44.060Z,23520.00
2018-05-12T06:07:43.997Z,23616.00
2018-05-12T06:08:43.931Z,25408.00
2018-05-12T06:09:43.903Z,25504.00
2018-05-12T06:10:43.860Z,26144.00
2018-05-12T06:11:43.833Z,26976.00
2018-05-12T06:12:43.797Z,27008.00
2018-05-12T06:13:43.795Z,26656.00
2018-05-12T06:14:43.727Z,27456.00
2018-05-12T06:15:43.696Z,27936.00
2018-05-12T06:16:43.652Z,28416.00
2018-05-12T06:17:43.627Z,28192.00
2018-05-12T06:18:43.626Z,28896.00
2018-05-12T06:19:43.568Z,28192.00
2018-05-12T06:20:43.522Z,28416.00
2018-05-12T06:21:43.493Z,28032.00
2018-05-12T06:22:43.461Z,28608.00
2018-05-12T06:23:43.455Z,28896.00
2018-05-12T06:24:43.402Z,28928.00
2018-05-12T06:25:43.366Z,29376.00
2018-05-12T06:26:43.328Z,30304.00
2018-05-12T06:27:43.304Z,30112.00
2018-05-12T06:28:43.289Z,30368.00
2018-05-12T06:29:43.228Z,30400.00
2018-05-12T06:30:43.201Z,30976.00
2018-05-12T06:31:43.165Z,31264.00
2018-05-12T06:32:43.138Z,31968.00
2018-05-12T06:33:43.128Z,31840.00
2018-05-12T06:34:43.067Z,31808.00
2018-05-12T06:35:43.030Z,31584.00
2018-05-12T06:36:43.010Z,32064.00
2018-05-12T06:37:42.977Z,32640.00
2018-05-12T06:38:42.969Z,33088.00
2018-05-12T06:39:42.917Z,35072.00
2018-05-12T06:40:42.869Z,35520.00
2018-05-12T06:41:42.844Z,35072.00
2018-05-12T06:42:42.812Z,33792.00
2018-05-12T06:43:42.807Z,33280.00
2018-05-12T06:44:42.755Z,34336.00
2018-05-12T06:45:42.720Z,34400.00
2018-05-12T06:46:42.712Z,34688.00
2018-05-12T06:47:42.665Z,34208.00
2018-05-12T06:48:42.643Z,34112.00
2018-05-12T06:49:42.589Z,33952.00
2018-05-12T06:50:42.562Z,35104.00
2018-05-12T06:51:42.533Z,35328.00
2018-05-12T06:52:42.501Z,35680.00
2018-05-12T06:53:42.492Z,36640.00
2018-05-12T06:54:42.438Z,37024.00
2018-05-12T06:55:42.401Z,36928.00
2018-05-12T06:56:42.374Z,35296.00
2018-05-12T06:57:42.345Z,36224.00
2018-05-12T06:58:42.336Z,36192.00
2018-05-12T06:59:42.280Z,37600.00
2018-05-12T07:00:42.243Z,37472.00
2018-05-12T07:01:42.211Z,36256.00
2018-05-12T07:02:42.178Z,34560.00
2018-05-12T07:03:42.175Z,33184.00
2018-05-12T07:04:42.117Z,33760.00
2018-05-12T07:05:42.094Z,32512.00
2018-05-12T07:06:42.053Z,33088.00
2018-05-12T07:07:42.044Z,35392.00
2018-05-12T07:08:42.015Z,32096.00
2018-05-12T07:09:41.975Z,34528.00
2018-05-12T07:10:41.938Z,36256.00
2018-05-12T07:11:41.902Z,39072.00
2018-05-12T07:12:41.864Z,40256.00
2018-05-12T07:13:41.856Z,40480.00
2018-05-12T07:14:41.797Z,39392.00
2018-05-12T07:15:41.775Z,36992.00
2018-05-12T07:16:41.745Z,37344.00
2018-05-12T07:17:41.717Z,38720.00
2018-05-12T07:18:41.710Z,38752.00
2018-05-12T07:19:41.651Z,38912.00
2018-05-12T07:20:41.614Z,39232.00
2018-05-12T07:21:41.582Z,36032.00
2018-05-12T07:22:41.560Z,37600.00
2018-05-12T07:23:41.552Z,39136.00
2018-05-12T07:24:41.489Z,33760.00
2018-05-12T07:25:41.456Z,30016.00
2018-05-12T07:26:41.431Z,33152.00
2018-05-12T07:27:41.405Z,38080.00
2018-05-12T07:28:41.395Z,40544.00
2018-05-12T07:29:41.433Z,38464.00
2018-05-12T07:30:41.312Z,34880.00
2018-05-12T07:31:41.278Z,32864.00
2018-05-12T07:32:41.245Z,31680.00
2018-05-12T07:33:41.233Z,39168.00
2018-05-12T07:34:41.179Z,39712.00
2018-05-12T07:35:41.152Z,32064.00
2018-05-12T07:36:41.146Z,38016.00
2018-05-12T07:37:41.100Z,35392.00
2018-05-12T07:38:41.083Z,35232.00
2018-05-12T07:39:41.032Z,30624.00
2018-05-12T07:40:40.998Z,33184.00
2018-05-12T07:41:40.979Z,34144.00
2018-05-12T07:42:40.941Z,37728.00
2018-05-12T07:43:40.937Z,38592.00
2018-05-12T07:44:40.879Z,35616.00
2018-05-12T07:45:40.843Z,35008.00
2018-05-12T07:46:40.834Z,37440.00
2018-05-12T07:47:40.785Z,43360.00
2018-05-12T07:48:40.859Z,45152.00
2018-05-12T07:49:40.737Z,46400.00
2018-05-12T07:50:40.701Z,32672.00
2018-05-12T07:51:40.667Z,37824.00
2018-05-12T07:52:40.633Z,36896.00
2018-05-12T07:53:40.681Z,37344.00
2018-05-12T07:54:41.218Z,38560.00
2018-05-12T07:55:40.547Z,42560.00
2018-05-12T07:56:40.514Z,42176.00
2018-05-12T07:57:40.504Z,46432.00
2018-05-12T07:58:40.468Z,48800.00
2018-05-12T07:59:40.421Z,48992.00
2018-05-12T08:00:40.390Z,48480.00
2018-05-12T08:01:40.365Z,48160.00
2018-05-12T08:02:40.336Z,46240.00
2018-05-12T08:03:40.326Z,45824.00
2018-05-12T08:04:40.269Z,43680.00
2018-05-12T08:05:40.233Z,43712.00
2018-05-12T08:06:40.209Z,41344.00
2018-05-12T08:07:40.179Z,42272.00
2018-05-12T08:08:40.179Z,39232.00
2018-05-12T08:09:40.134Z,38272.00
2018-05-12T08:10:40.094Z,42880.00
2018-05-12T08:11:40.080Z,48416.00
2018-05-12T08:12:40.047Z,48448.00
2018-05-12T08:13:40.039Z,44928.00
2018-05-12T08:14:40.001Z,42176.00
2018-05-12T08:15:39.950Z,41184.00
2018-05-12T08:16:39.926Z,40832.00
2018-05-12T08:17:39.884Z,45152.00
2018-05-12T08:18:39.870Z,49536.00
2018-05-12T08:19:39.852Z,49472.00
2018-05-12T08:20:39.818Z,50432.00
2018-05-12T08:21:39.787Z,48864.00
2018-05-12T08:22:39.755Z,47360.00
2018-05-12T08:23:39.750Z,45568.00
2018-05-12T08:24:39.710Z,45056.00
2018-05-12T08:25:39.648Z,43488.00
2018-05-12T08:26:39.682Z,44736.00
2018-05-12T08:27:39.596Z,44096.00
2018-05-12T08:28:39.566Z,47712.00
2018-05-12T08:29:39.562Z,49280.00
2018-05-12T08:30:39.511Z,44448.00
2018-05-12T08:31:39.559Z,47296.00
2018-05-12T08:32:39.454Z,45696.00
2018-05-12T08:33:39.436Z,49120.00
2018-05-12T08:34:39.437Z,46144.00
2018-05-12T08:35:39.513Z,44000.00
2018-05-12T08:36:39.595Z,44160.00
2018-05-12T08:37:39.308Z,51264.00
2018-05-12T08:38:39.277Z,54976.00
2018-05-12T08:39:49.255Z,50176.00
2018-05-12T08:40:39.220Z,49472.00
2018-05-12T08:41:39.199Z,48192.00
2018-05-12T08:42:39.183Z,48736.00
2018-05-12T08:43:39.153Z,50816.00
2018-05-12T08:44:39.143Z,50848.00
2018-05-12T08:45:39.151Z,50848.00
2018-05-12T08:46:39.058Z,50816.00
2018-05-12T08:47:39.021Z,50048.00
2018-05-12T08:48:38.999Z,50816.00
2018-05-12T08:49:39.024Z,47616.00
2018-05-12T08:50:38.944Z,49792.00
2018-05-12T08:51:38.940Z,48352.00
2018-05-12T08:52:38.909Z,48224.00
2018-05-12T08:53:38.862Z,49312.00
2018-05-12T08:54:38.857Z,42880.00
2018-05-12T08:55:38.916Z,48224.00
2018-05-12T08:56:38.811Z,50368.00
2018-05-12T08:57:38.760Z,43008.00
2018-05-12T08:58:38.721Z,45440.00
2018-05-12T08:59:38.841Z,40928.00
2018-05-12T09:00:38.663Z,43680.00
2018-05-12T09:01:38.641Z,46784.00
2018-05-12T09:02:38.613Z,46656.00
2018-05-12T09:03:38.586Z,43488.00
2018-05-12T09:04:38.596Z,40416.00
2018-05-12T09:05:38.567Z,39680.00
2018-05-12T09:06:38.498Z,43296.00
2018-05-12T09:07:38.468Z,41600.00
2018-05-12T09:08:38.433Z,41504.00
2018-05-12T09:09:38.414Z,44352.00
2018-05-12T09:10:38.418Z,45248.00
2018-05-12T09:11:38.361Z,45792.00
2018-05-12T09:12:38.325Z,47456.00
2018-05-12T09:13:38.298Z,50048.00
2018-05-12T09:14:38.276Z,46272.00
2018-05-12T09:15:38.250Z,50176.00
2018-05-12T09:16:38.244Z,44768.00
2018-05-12T09:17:38.190Z,42560.00
2018-05-12T09:18:38.224Z,45376.00
2018-05-12T09:19:38.147Z,47296.00
2018-05-12T09:20:38.122Z,42176.00
2018-05-12T09:21:38.101Z,41952.00
2018-05-12T09:22:38.062Z,43744.00
2018-05-12T09:23:38.028Z,45760.00
2018-05-12T09:24:38.000Z,48288.00
2018-05-12T09:25:38.041Z,50240.00
2018-05-12T09:26:37.969Z,51808.00
2018-05-12T09:27:37.952Z,50688.00
2018-05-12T09:28:37.894Z,46912.00
2018-05-12T09:29:37.860Z,42368.00
2018-05-12T09:30:37.825Z,41856.00
2018-05-12T09:31:37.794Z,45088.00
2018-05-12T09:32:37.794Z,46976.00
2018-05-12T09:33:37.748Z,49152.00
2018-05-12T09:34:37.719Z,49056.00
2018-05-12T09:35:37.705Z,49760.00
2018-05-12T09:36:37.677Z,51168.00
2018-05-12T09:37:37.639Z,51264.00
2018-05-12T09:38:37.634Z,47584.00
2018-05-12T09:39:37.604Z,41760.00
2018-05-12T09:40:37.548Z,41056.00
2018-05-12T09:41:37.534Z,42560.00
2018-05-12T09:42:37.582Z,48960.00
2018-05-12T09:43:37.509Z,47520.00
2018-05-12T09:44:37.441Z,47616.00
2018-05-12T09:45:37.418Z,49856.00
2018-05-12T09:46:37.401Z,45984.00
2018-05-12T09:47:37.377Z,46624.00
2018-05-12T09:48:37.348Z,45056.00
2018-05-12T09:49:37.336Z,42752.00
2018-05-12T09:50:47.885Z,44096.00
2018-05-12T09:51:37.714Z,41376.00
2018-05-12T09:52:37.241Z,39360.00
2018-05-12T09:53:37.222Z,39040.00
2018-05-12T09:54:37.227Z,40480.00
2018-05-12T09:55:37.151Z,38880.00
2018-05-12T09:56:37.130Z,36448.00
2018-05-12T09:57:37.092Z,30432.00
2018-05-12T09:58:37.078Z,32512.00
2018-05-12T09:59:37.129Z,36864.00
2018-05-12T10:00:37.010Z,41024.00
2018-05-12T10:01:36.985Z,42880.00
2018-05-12T10:02:36.958Z,43136.00
2018-05-12T10:03:36.926Z,47936.00
2018-05-12T10:04:36.940Z,47264.00
2018-05-12T10:05:36.882Z,50624.00
2018-05-12T10:06:36.853Z,47712.00
2018-05-12T10:07:36.841Z,46400.00
2018-05-12T10:08:36.788Z,45120.00
2018-05-12T10:09:36.794Z,45024.00
2018-05-12T10:10:36.742Z,42336.00
2018-05-12T10:11:36.700Z,42752.00
2018-05-12T10:12:36.680Z,43712.00
2018-05-12T10:13:36.666Z,46784.00
2018-05-12T10:14:46.319Z,48384.00
2018-05-12T10:15:36.624Z,50016.00
2018-05-12T10:16:36.575Z,50976.00
2018-05-12T10:17:36.531Z,50016.00
2018-05-12T10:18:36.503Z,41184.00
2018-05-12T10:19:36.476Z,49792.00
2018-05-12T10:20:36.468Z,48832.00
2018-05-12T10:21:36.421Z,51200.00
2018-05-12T10:22:36.395Z,48224.00
2018-05-12T10:23:36.377Z,45408.00
2018-05-12T10:24:36.346Z,47040.00
2018-05-12T10:25:36.344Z,50752.00
2018-05-12T10:26:36.289Z,52608.00
2018-05-12T10:27:36.279Z,51296.00
2018-05-12T10:28:36.235Z,48672.00
2018-05-12T10:29:36.211Z,41472.00
2018-05-12T10:30:36.210Z,45728.00
2018-05-12T10:31:36.170Z,46976.00
2018-05-12T10:32:36.125Z,48416.00
2018-05-12T10:33:36.094Z,49248.00
2018-05-12T10:34:36.073Z,49344.00
2018-05-12T10:35:36.058Z,47328.00
2018-05-12T10:36:36.022Z,51168.00
2018-05-12T10:37:36.015Z,48224.00
2018-05-12T10:38:35.959Z,47712.00
2018-05-12T10:39:35.931Z,49152.00
2018-05-12T10:40:46.349Z,51232.00
2018-05-12T10:41:35.884Z,50624.00
2018-05-12T10:42:35.884Z,51296.00
2018-05-12T10:43:35.827Z,48448.00
2018-05-12T10:44:35.799Z,52640.00
2018-05-12T10:45:35.781Z,50944.00
2018-05-12T10:46:35.756Z,46816.00
2018-05-12T10:47:35.750Z,48256.00
2018-05-12T10:48:35.699Z,45184.00
2018-05-12T10:49:35.662Z,44800.00
2018-05-12T10:50:35.635Z,44128.00
2018-05-12T10:51:35.626Z,44896.00
2018-05-12T10:52:35.613Z,48576.00
2018-05-12T10:53:35.833Z,44736.00
2018-05-12T10:54:35.543Z,46336.00
2018-05-12T10:55:35.506Z,50880.00
2018-05-12T10:56:35.480Z,50304.00
2018-05-12T10:57:35.456Z,50176.00
2018-05-12T10:58:35.468Z,49664.00
2018-05-12T10:59:35.410Z,47776.00
2018-05-12T11:00:35.365Z,48640.00
2018-05-12T11:01:35.336Z,46464.00
2018-05-12T11:02:35.334Z,52256.00
2018-05-12T11:03:35.288Z,52448.00
2018-05-12T11:04:44.895Z,55648.00
2018-05-12T11:05:35.237Z,52000.00
2018-05-12T11:06:35.206Z,57984.00
2018-05-12T11:07:35.190Z,51488.00
2018-05-12T11:08:35.152Z,53856.00
2018-05-12T11:09:35.217Z,56384.00
2018-05-12T11:10:35.091Z,59040.00
2018-05-12T11:11:35.058Z,60736.00
2018-05-12T11:12:35.042Z,59936.00
2018-05-12T11:13:35.008Z,59584.00
2018-05-12T11:14:34.982Z,58528.00
2018-05-12T11:15:34.970Z,58880.00
2018-05-12T11:16:34.935Z,58272.00
2018-05-12T11:17:34.896Z,56576.00
2018-05-12T11:18:34.869Z,56192.00
2018-05-12T11:19:34.863Z,56256.00
2018-05-12T11:20:34.848Z,56320.00
2018-05-12T11:21:34.828Z,55520.00
2018-05-12T11:22:34.759Z,57184.00
2018-05-12T11:23:34.736Z,57152.00
2018-05-12T11:24:34.711Z,58528.00
2018-05-12T11:25:34.740Z,53504.00
2018-05-12T11:26:34.768Z,42496.00
2018-05-12T11:27:34.637Z,55008.00
2018-05-12T11:28:34.594Z,59008.00
2018-05-12T11:29:34.604Z,62048.00
2018-05-12T11:30:34.556Z,59424.00
2018-05-12T11:31:34.527Z,55776.00
2018-05-12T11:32:34.507Z,54688.00
2018-05-12T11:33:34.481Z,56896.00
2018-05-12T11:34:34.434Z,49664.00
2018-05-12T11:35:34.434Z,56032.00
2018-05-12T11:36:34.378Z,56096.00
2018-05-12T11:37:34.360Z,53376.00
2018-05-12T11:38:34.338Z,44736.00
2018-05-12T11:39:34.314Z,47264.00
2018-05-12T11:40:34.311Z,49344.00
2018-05-12T11:41:34.256Z,46368.00
2018-05-12T11:42:34.228Z,48928.00
2018-05-12T11:43:34.192Z,49344.00
2018-05-12T11:44:34.282Z,49056.00
2018-05-12T11:45:34.168Z,45376.00
2018-05-12T11:46:34.111Z,42176.00
2018-05-12T11:47:34.087Z,47584.00
2018-05-12T11:48:34.055Z,42784.00
2018-05-12T11:49:34.109Z,45152.00
2018-05-12T11:50:34.029Z,47328.00
2018-05-12T11:51:33.987Z,54144.00
2018-05-12T11:52:33.969Z,53856.00
2018-05-12T11:53:33.932Z,47232.00
2018-05-12T11:54:33.904Z,39104.00
2018-05-12T11:55:33.890Z,50368.00
2018-05-12T11:56:33.837Z,49920.00
2018-05-12T11:57:33.813Z,49088.00
2018-05-12T11:58:33.787Z,40640.00
2018-05-12T11:59:33.774Z,44480.00
2018-05-12T12:00:33.727Z,51808.00
2018-05-12T12:01:33.757Z,48480.00
2018-05-12T12:02:33.782Z,54848.00
2018-05-12T12:03:33.659Z,54496.00
2018-05-12T12:04:33.624Z,54656.00
2018-05-12T12:05:33.591Z,54848.00
2018-05-12T12:06:33.565Z,52544.00
2018-05-12T12:07:33.553Z,52512.00
2018-05-12T12:08:33.504Z,39872.00
2018-05-12T12:09:33.485Z,54272.00
2018-05-12T12:10:33.453Z,56608.00
2018-05-12T12:11:33.430Z,58272.00
2018-05-12T12:12:33.424Z,47136.00
2018-05-12T12:13:33.369Z,44096.00